createdAt,value
2018-10-04T00:01:44.774Z,4.40
2018-10-04T00:04:13.403Z,4.40
2018-10-04T00:06:42.077Z,4.50
2018-10-04T00:09:10.678Z,4.30
2018-10-04T00:11:39.278Z,4.20
2018-10-04T00:14:08.150Z,4.10
2018-10-04T00:16:36.722Z,4.30
2018-10-04T00:19:05.602Z,4.20
2018-10-04T00:21:34.145Z,4.30
2018-10-04T00:24:02.685Z,3.90
2018-10-04T00:26:31.247Z,3.70
2018-10-04T00:28:59.817Z,3.80
2018-10-04T00:31:28.459Z,3.90
2018-10-04T00:33:57.115Z,3.90
2018-10-04T00:36:25.693Z,3.90
2018-10-04T00:38:54.258Z,3.70
2018-10-04T00:41:22.880Z,3.80
2018-10-04T00:43:51.426Z,3.80
2018-10-04T00:46:20.069Z,3.80
2018-10-04T00:48:48.662Z,4.10
2018-10-04T00:51:17.257Z,4.00
2018-10-04T00:53:45.798Z,3.90
2018-10-04T00:56:14.391Z,3.70
2018-10-04T00:58:43.066Z,3.70
2018-10-04T01:01:11.634Z,3.60
2018-10-04T01:03:40.210Z,3.50
2018-10-04T01:06:08.849Z,3.70
2018-10-04T01:08:37.434Z,3.70
2018-10-04T01:11:06.106Z,3.60
2018-10-04T01:13:34.730Z,3.70
2018-10-04T01:16:03.629Z,3.80
2018-10-04T01:18:43.507Z,3.80
2018-10-04T01:21:12.127Z,3.60
2018-10-04T01:23:40.711Z,3.50
2018-10-04T01:26:09.322Z,3.50
2018-10-04T01:28:37.926Z,3.50
2018-10-04T01:31:06.702Z,3.30
2018-10-04T01:33:35.247Z,3.50
2018-10-04T01:36:03.949Z,3.50
2018-10-04T01:38:32.629Z,3.40
2018-10-04T01:41:01.213Z,3.50
2018-10-04T01:43:29.805Z,3.60
2018-10-04T01:45:58.479Z,3.40
2018-10-04T01:48:27.074Z,3.50
2018-10-04T01:50:55.670Z,3.60
2018-10-04T01:53:24.248Z,3.60
2018-10-04T01:55:52.818Z,3.60
2018-10-04T01:58:21.401Z,3.30
2018-10-04T02:00:49.999Z,3.40
2018-10-04T02:03:18.581Z,3.40
2018-10-04T02:05:47.165Z,3.10
2018-10-04T02:08:15.758Z,3.00
2018-10-04T02:10:44.550Z,3.20
2018-10-04T02:13:13.237Z,3.30
2018-10-04T02:15:41.810Z,3.00
2018-10-04T02:18:10.452Z,2.90
2018-10-04T02:20:39.261Z,3.20
2018-10-04T02:23:07.982Z,3.20
2018-10-04T02:25:36.675Z,3.20
2018-10-04T02:28:05.509Z,3.30
2018-10-04T02:30:34.104Z,3.10
2018-10-04T02:33:02.665Z,2.90
2018-10-04T02:35:31.224Z,3.00
2018-10-04T02:38:00.024Z,2.90
2018-10-04T02:40:28.685Z,2.80
2018-10-04T02:42:57.264Z,2.80
2018-10-04T02:45:26.034Z,2.90
2018-10-04T02:47:54.769Z,3.00
2018-10-04T02:50:23.484Z,2.90
2018-10-04T02:52:52.203Z,2.80
2018-10-04T02:55:26.090Z,2.80
2018-10-04T02:57:54.750Z,2.70
2018-10-04T03:00:23.462Z,2.70
2018-10-04T03:02:52.035Z,2.80
2018-10-04T03:05:20.768Z,2.80
2018-10-04T03:07:49.408Z,2.90
2018-10-04T03:10:18.060Z,2.70
2018-10-04T03:12:46.738Z,2.60
2018-10-04T03:15:15.475Z,2.70
2018-10-04T03:17:44.107Z,2.70
2018-10-04T03:20:12.778Z,2.60
2018-10-04T03:22:41.334Z,2.60
2018-10-04T03:25:10.018Z,2.70
2018-10-04T03:27:38.678Z,2.80
2018-10-04T03:30:07.649Z,2.80
2018-10-04T03:32:36.164Z,2.60
2018-10-04T03:35:05.122Z,2.30
2018-10-04T03:37:33.684Z,2.50
2018-10-04T03:40:02.366Z,2.60
2018-10-04T03:42:30.935Z,2.50
2018-10-04T03:44:59.512Z,2.40
2018-10-04T03:47:28.085Z,2.50
2018-10-04T03:49:56.679Z,2.60
2018-10-04T03:52:25.320Z,2.60
2018-10-04T03:54:53.924Z,2.70
2018-10-04T03:57:22.488Z,2.60
2018-10-04T03:59:51.745Z,2.60
2018-10-04T04:02:20.411Z,2.50
2018-10-04T04:04:49.016Z,2.40
2018-10-04T04:07:17.595Z,2.40
2018-10-04T04:09:46.237Z,2.40
2018-10-04T04:12:14.828Z,2.50
2018-10-04T04:14:43.494Z,2.50
2018-10-04T04:17:12.191Z,2.40
2018-10-04T04:19:40.756Z,2.10
2018-10-04T04:22:09.488Z,2.00
2018-10-04T04:24:37.985Z,2.20
2018-10-04T04:27:06.527Z,2.40
2018-10-04T04:29:35.062Z,2.50
2018-10-04T04:32:03.766Z,2.20
2018-10-04T04:34:32.246Z,2.30
2018-10-04T04:37:00.854Z,2.10
2018-10-04T04:39:29.399Z,1.90
2018-10-04T04:41:58.103Z,1.90
2018-10-04T04:44:26.684Z,1.90
2018-10-04T04:46:55.286Z,2.00
2018-10-04T04:49:23.876Z,2.20
2018-10-04T04:51:52.458Z,2.20
2018-10-04T04:55:37.091Z,2.10
2018-10-04T04:58:06.986Z,2.10
2018-10-04T05:00:36.823Z,2.00
2018-10-04T05:03:05.409Z,2.10
2018-10-04T05:05:34.047Z,2.10
2018-10-04T05:08:03.780Z,2.00
2018-10-04T05:10:32.889Z,1.80
2018-10-04T05:13:02.585Z,2.00
2018-10-04T05:15:31.145Z,2.00
2018-10-04T05:17:59.734Z,2.20
2018-10-04T05:20:28.417Z,2.10
2018-10-04T05:22:57.011Z,2.10
2018-10-04T05:26:29.297Z,2.00
2018-10-04T05:28:59.015Z,1.80
2018-10-04T05:31:27.694Z,1.90
2018-10-04T05:33:56.270Z,1.80
2018-10-04T05:36:24.813Z,2.00
2018-10-04T05:38:53.418Z,2.20
2018-10-04T05:41:21.953Z,2.10
2018-10-04T05:43:50.536Z,2.10
2018-10-04T05:46:19.116Z,2.20
2018-10-04T05:48:47.634Z,1.90
2018-10-04T05:51:16.232Z,1.80
2018-10-04T05:53:44.861Z,2.00
2018-10-04T05:56:13.549Z,2.00
2018-10-04T05:58:42.317Z,2.20
2018-10-04T06:01:10.907Z,2.20
2018-10-04T06:03:39.613Z,2.20
2018-10-04T06:06:08.249Z,2.20
2018-10-04T06:08:36.934Z,2.30
2018-10-04T06:11:05.625Z,2.50
2018-10-04T06:13:34.200Z,2.50
2018-10-04T06:16:02.826Z,2.60
2018-10-04T06:18:31.372Z,2.80
2018-10-04T06:21:00.050Z,3.10
2018-10-04T06:23:28.681Z,3.20
2018-10-04T06:25:57.522Z,3.50
2018-10-04T06:28:26.107Z,3.50
2018-10-04T06:30:54.686Z,3.40
2018-10-04T06:33:23.278Z,3.60
2018-10-04T06:35:51.920Z,3.20
2018-10-04T06:38:20.474Z,3.10
2018-10-04T06:40:49.045Z,3.00
2018-10-04T06:43:17.586Z,3.60
2018-10-04T06:45:46.244Z,3.80
2018-10-04T06:48:14.831Z,4.00
2018-10-04T06:50:43.484Z,4.10
2018-10-04T06:53:12.083Z,4.50
2018-10-04T06:55:40.774Z,4.80
2018-10-04T06:58:09.409Z,5.00
2018-10-04T07:00:38.077Z,5.30
2018-10-04T07:03:07.050Z,5.60
2018-10-04T07:05:35.795Z,5.70
2018-10-04T07:08:04.539Z,5.90
2018-10-04T07:10:33.171Z,5.90
2018-10-04T07:13:01.936Z,6.10
2018-10-04T07:15:30.528Z,6.00
2018-10-04T07:17:59.142Z,6.00
2018-10-04T07:20:27.878Z,6.40
2018-10-04T07:22:56.500Z,6.80
2018-10-04T07:25:25.079Z,7.30
2018-10-04T07:27:53.941Z,7.50
2018-10-04T07:30:22.590Z,7.70
2018-10-04T07:32:51.215Z,8.00
2018-10-04T07:35:19.949Z,8.10
2018-10-04T07:37:48.580Z,8.20
2018-10-04T07:40:17.545Z,8.40
2018-10-04T07:42:46.310Z,8.50
2018-10-04T07:45:14.983Z,9.00
2018-10-04T07:47:43.594Z,9.10
2018-10-04T07:50:13.485Z,9.30
2018-10-04T07:52:42.228Z,9.70
2018-10-04T07:55:10.882Z,9.80
2018-10-04T07:57:39.644Z,10.00
2018-10-04T08:00:08.383Z,10.20
2018-10-04T08:02:37.079Z,10.70
2018-10-04T08:05:05.885Z,10.70
2018-10-04T08:07:34.575Z,10.40
2018-10-04T08:10:03.383Z,10.80
2018-10-04T08:12:32.010Z,11.20
2018-10-04T08:15:00.733Z,11.30
2018-10-04T08:17:29.520Z,11.60
2018-10-04T08:19:58.222Z,11.60
2018-10-04T08:22:26.847Z,11.50
2018-10-04T08:24:55.465Z,11.90
2018-10-04T08:27:24.039Z,12.50
2018-10-04T08:29:52.705Z,12.50
2018-10-04T08:32:21.270Z,12.60
2018-10-04T08:34:49.949Z,12.70
2018-10-04T08:37:18.536Z,13.00
2018-10-04T08:39:47.120Z,13.10
2018-10-04T08:42:15.758Z,13.50
2018-10-04T08:44:44.405Z,13.70
2018-10-04T08:47:13.155Z,13.60
2018-10-04T08:49:41.717Z,13.50
2018-10-04T08:52:15.670Z,13.20
2018-10-04T08:54:44.299Z,13.70
2018-10-04T08:57:13.135Z,14.00
2018-10-04T08:59:41.843Z,14.10
2018-10-04T09:02:10.430Z,14.00
2018-10-04T09:04:39.001Z,14.60
2018-10-04T09:07:07.889Z,14.60
2018-10-04T09:09:36.532Z,14.80
2018-10-04T09:12:05.221Z,14.60
2018-10-04T09:14:34.034Z,15.30
2018-10-04T09:17:02.633Z,15.20
2018-10-04T09:19:32.636Z,15.20
2018-10-04T09:22:01.289Z,15.30
2018-10-04T09:24:29.946Z,15.60
2018-10-04T09:26:58.654Z,15.80
2018-10-04T09:29:27.287Z,16.30
2018-10-04T09:31:55.969Z,16.00
2018-10-04T09:34:24.565Z,16.40
2018-10-04T09:36:53.160Z,16.60
2018-10-04T09:39:21.766Z,16.70
2018-10-04T09:41:50.552Z,16.90
2018-10-04T09:44:19.172Z,16.60
2018-10-04T09:46:47.773Z,16.70
2018-10-04T09:49:16.366Z,16.50
2018-10-04T09:51:50.248Z,16.90
2018-10-04T09:54:24.051Z,17.00
2018-10-04T09:56:52.705Z,16.70
2018-10-04T09:59:21.269Z,16.70
2018-10-04T10:01:55.184Z,17.40
2018-10-04T10:04:23.865Z,17.50
2018-10-04T10:06:52.527Z,17.60
2018-10-04T10:09:21.145Z,17.70
2018-10-04T10:11:49.917Z,18.10
2018-10-04T10:14:18.598Z,18.50
2018-10-04T10:16:47.183Z,18.30
2018-10-04T10:19:15.940Z,17.80
2018-10-04T10:21:44.620Z,18.10
2018-10-04T10:24:13.207Z,17.80
2018-10-04T10:26:41.795Z,18.60
2018-10-04T10:29:10.503Z,18.70
2018-10-04T10:31:39.107Z,18.60
2018-10-04T10:34:07.654Z,18.50
2018-10-04T10:36:36.571Z,18.50
2018-10-04T10:39:07.045Z,18.70
2018-10-04T10:41:35.743Z,18.30
2018-10-04T10:44:04.412Z,18.60
2018-10-04T10:46:33.018Z,18.40
2018-10-04T10:49:01.618Z,18.00
2018-10-04T10:51:30.214Z,18.30
2018-10-04T10:53:58.809Z,17.40
2018-10-04T10:56:27.470Z,18.20
2018-10-04T10:58:56.138Z,18.00
2018-10-04T11:01:24.880Z,18.30
2018-10-04T11:03:53.434Z,17.50
2018-10-04T11:06:22.043Z,17.60
2018-10-04T11:08:50.648Z,18.20
2018-10-04T11:11:19.303Z,17.80
2018-10-04T11:13:47.828Z,17.10
2018-10-04T11:16:16.389Z,17.30
2018-10-04T11:20:09.395Z,17.30
2018-10-04T11:22:37.935Z,17.30
2018-10-04T11:25:06.543Z,17.30
2018-10-04T11:27:35.109Z,18.30
2018-10-04T11:30:03.756Z,18.20
2018-10-04T11:32:32.359Z,18.80
2018-10-04T11:35:00.931Z,19.30
2018-10-04T11:37:29.503Z,19.50
2018-10-04T11:39:58.163Z,19.20
2018-10-04T11:42:26.862Z,19.60
2018-10-04T11:44:57.697Z,19.80
2018-10-04T11:47:29.775Z,20.10
2018-10-04T11:49:58.434Z,20.10
2018-10-04T11:52:27.055Z,19.50
2018-10-04T11:54:55.707Z,19.40
2018-10-04T11:57:24.437Z,19.70
2018-10-04T11:59:53.526Z,19.60
2018-10-04T12:02:22.421Z,18.70
2018-10-04T12:04:51.065Z,19.50
2018-10-04T12:07:19.689Z,19.60
2018-10-04T12:09:48.270Z,20.00
2018-10-04T12:12:16.927Z,19.20
2018-10-04T12:14:45.543Z,18.20
2018-10-04T12:17:14.158Z,18.00
2018-10-04T12:19:42.773Z,18.90
2018-10-04T12:22:11.415Z,19.70
2018-10-04T12:24:40.030Z,19.70
2018-10-04T12:27:08.716Z,20.30
2018-10-04T12:29:37.364Z,19.50
2018-10-04T12:32:06.016Z,20.10
2018-10-04T12:34:34.609Z,20.50
2018-10-04T12:37:03.242Z,19.20
2018-10-04T12:39:31.850Z,19.30
2018-10-04T12:42:00.527Z,19.90
2018-10-04T12:44:29.100Z,20.00
2018-10-04T12:46:57.977Z,20.10
2018-10-04T12:49:26.890Z,20.10
2018-10-04T12:51:55.584Z,19.30
2018-10-04T12:54:24.223Z,19.70
2018-10-04T12:56:53.000Z,20.20
2018-10-04T12:59:21.721Z,20.00
2018-10-04T13:01:50.398Z,19.20
2018-10-04T13:04:18.983Z,19.60
2018-10-04T13:06:47.686Z,19.70
2018-10-04T13:09:16.248Z,20.10
2018-10-04T13:11:45.071Z,19.30
2018-10-04T13:14:13.642Z,20.00
2018-10-04T13:16:42.297Z,18.40
2018-10-04T13:19:10.937Z,18.50
2018-10-04T13:21:39.717Z,18.90
2018-10-04T13:24:08.385Z,18.10
2018-10-04T13:26:37.033Z,18.80
2018-10-04T13:29:05.781Z,18.00
2018-10-04T13:31:34.378Z,18.00
2018-10-04T13:34:03.090Z,18.60
2018-10-04T13:36:31.706Z,19.20
2018-10-04T13:39:00.348Z,18.70
2018-10-04T13:41:29.000Z,19.00
2018-10-04T13:43:57.581Z,19.20
2018-10-04T13:46:26.233Z,19.00
2018-10-04T13:48:54.939Z,18.80
2018-10-04T13:51:23.786Z,19.00
2018-10-04T13:53:52.614Z,19.50
2018-10-04T13:56:21.258Z,19.80
2018-10-04T13:58:49.976Z,19.30
2018-10-04T14:01:18.636Z,19.30
2018-10-04T14:03:47.305Z,19.10
2018-10-04T14:06:16.092Z,19.60
2018-10-04T14:08:44.655Z,18.90
2018-10-04T14:11:13.430Z,19.30
2018-10-04T14:13:42.392Z,19.60
2018-10-04T14:16:11.005Z,19.10
2018-10-04T14:18:39.847Z,18.80
2018-10-04T14:21:08.527Z,18.90
2018-10-04T14:23:37.122Z,19.00
2018-10-04T14:26:05.826Z,19.10
2018-10-04T14:28:34.464Z,19.40
2018-10-04T14:31:03.054Z,18.50
2018-10-04T14:33:31.710Z,18.50
2018-10-04T14:36:00.502Z,18.80
2018-10-04T14:38:29.451Z,18.50
2018-10-04T14:40:58.171Z,18.50
2018-10-04T14:43:26.833Z,19.10
2018-10-04T14:45:55.941Z,19.10
2018-10-04T14:48:25.119Z,18.80
2018-10-04T14:50:54.241Z,18.30
2018-10-04T14:53:24.193Z,18.50
2018-10-04T14:55:53.413Z,18.40
2018-10-04T14:58:22.373Z,18.40
2018-10-04T15:00:50.997Z,18.70
2018-10-04T15:03:19.703Z,18.50
2018-10-04T15:05:48.497Z,18.40
2018-10-04T15:08:17.188Z,18.00
2018-10-04T15:10:45.838Z,18.20
2018-10-04T15:13:14.467Z,18.20
2018-10-04T15:15:43.128Z,18.40
2018-10-04T15:18:11.848Z,18.20
2018-10-04T15:20:40.594Z,18.20
2018-10-04T15:23:09.271Z,18.30
2018-10-04T15:25:37.895Z,18.30
2018-10-04T15:28:06.688Z,17.90
2018-10-04T15:30:35.469Z,18.00
2018-10-04T15:33:04.154Z,17.70
2018-10-04T15:35:32.780Z,18.00
2018-10-04T15:38:01.425Z,18.20
2018-10-04T15:40:30.052Z,18.40
2018-10-04T15:42:58.715Z,18.40
2018-10-04T15:45:27.261Z,18.50
2018-10-04T15:47:55.938Z,18.00
2018-10-04T15:50:25.402Z,17.80
2018-10-04T15:52:56.076Z,17.60
2018-10-04T15:55:27.488Z,17.50
2018-10-04T15:58:01.899Z,17.30
2018-10-04T16:00:37.991Z,17.20
2018-10-04T16:03:12.065Z,17.00
2018-10-04T16:05:46.747Z,17.10
2018-10-04T16:08:15.779Z,17.10
2018-10-04T16:10:45.566Z,17.20
2018-10-04T16:13:15.983Z,17.30
2018-10-04T16:15:49.723Z,17.20
2018-10-04T16:18:19.677Z,17.30
2018-10-04T16:20:49.280Z,17.50
2018-10-04T16:23:19.345Z,17.50
2018-10-04T16:25:48.372Z,17.50
2018-10-04T16:28:18.346Z,17.50
2018-10-04T16:30:47.910Z,17.20
2018-10-04T16:33:17.431Z,16.80
2018-10-04T16:35:46.546Z,16.70
2018-10-04T16:38:15.469Z,16.40
2018-10-04T16:40:44.081Z,16.10
2018-10-04T16:43:13.517Z,16.20
2018-10-04T16:45:42.558Z,15.90
2018-10-04T16:48:11.411Z,15.50
2018-10-04T16:50:41.874Z,15.50
2018-10-04T16:53:12.810Z,15.60
2018-10-04T16:55:42.712Z,15.70
2018-10-04T16:58:12.299Z,15.80
2018-10-04T17:00:43.238Z,15.90
2018-10-04T17:03:13.010Z,15.50
2018-10-04T17:05:42.602Z,15.70
2018-10-04T17:08:12.539Z,15.60
2018-10-04T17:10:41.258Z,15.70
2018-10-04T17:13:10.190Z,15.50
2018-10-04T17:15:39.039Z,15.50
2018-10-04T17:18:08.394Z,15.20
2018-10-04T17:20:37.005Z,14.90
2018-10-04T17:23:05.691Z,14.70
2018-10-04T17:25:34.254Z,14.40
2018-10-04T17:28:02.822Z,14.10
2018-10-04T17:30:31.380Z,14.00
2018-10-04T17:32:59.916Z,13.80
2018-10-04T17:35:28.495Z,13.80
2018-10-04T17:37:57.142Z,13.80
2018-10-04T17:40:25.787Z,13.40
2018-10-04T17:42:54.438Z,13.50
2018-10-04T17:45:23.002Z,13.50
2018-10-04T17:47:51.710Z,13.40
2018-10-04T17:50:20.195Z,13.30
2018-10-04T17:52:48.751Z,13.30
2018-10-04T17:55:17.316Z,13.30
2018-10-04T17:57:45.934Z,13.30
2018-10-04T18:00:15.490Z,13.30
2018-10-04T18:02:44.071Z,13.10
2018-10-04T18:05:12.655Z,12.80
2018-10-04T18:07:41.686Z,12.30
2018-10-04T18:10:10.435Z,12.00
2018-10-04T18:12:39.291Z,12.10
2018-10-04T18:15:07.876Z,12.00
2018-10-04T18:17:36.506Z,12.10
2018-10-04T18:20:05.186Z,12.10
2018-10-04T18:22:33.829Z,12.30
2018-10-04T18:25:02.430Z,12.10
2018-10-04T18:27:30.957Z,11.70
2018-10-04T18:29:59.554Z,11.60
2018-10-04T18:32:28.207Z,11.60
2018-10-04T18:34:56.764Z,11.60
2018-10-04T18:37:25.468Z,11.50
2018-10-04T18:39:54.059Z,11.00
2018-10-04T18:42:22.699Z,11.00
2018-10-04T18:44:51.301Z,11.30
2018-10-04T18:47:19.882Z,11.30
2018-10-04T18:49:48.474Z,11.30
2018-10-04T18:52:17.099Z,11.20
2018-10-04T18:54:45.733Z,11.00
2018-10-04T18:57:14.344Z,11.10
2018-10-04T18:59:42.963Z,11.10
2018-10-04T19:02:11.505Z,11.10
2018-10-04T19:04:40.079Z,10.80
2018-10-04T19:07:08.821Z,10.70
2018-10-04T19:09:37.465Z,10.60
2018-10-04T19:12:06.380Z,10.70
2018-10-04T19:14:35.010Z,10.60
2018-10-04T19:17:03.739Z,10.50
2018-10-04T19:19:32.313Z,10.60
2018-10-04T19:22:00.935Z,10.60
2018-10-04T19:24:29.512Z,10.50
2018-10-04T19:26:58.297Z,10.40
2018-10-04T19:29:26.860Z,10.10
2018-10-04T19:31:55.429Z,10.30
2018-10-04T19:34:24.000Z,10.20
2018-10-04T19:36:52.605Z,10.10
2018-10-04T19:39:21.258Z,10.10
2018-10-04T19:41:49.902Z,10.00
2018-10-04T19:44:18.596Z,9.90
2018-10-04T19:46:47.219Z,9.80
2018-10-04T19:49:15.816Z,9.90
2018-10-04T19:51:44.513Z,9.80
2018-10-04T19:54:13.091Z,9.80
2018-10-04T19:56:41.728Z,9.70
2018-10-04T19:59:10.491Z,9.80
2018-10-04T20:01:39.072Z,9.50
2018-10-04T20:04:07.753Z,9.30
2018-10-04T20:06:36.396Z,9.20
2018-10-04T20:09:06.216Z,9.00
2018-10-04T20:11:34.801Z,9.20
2018-10-04T20:14:03.388Z,9.20
2018-10-04T20:16:32.119Z,9.00
2018-10-04T20:19:00.678Z,8.90
2018-10-04T20:21:29.433Z,9.00
2018-10-04T20:23:57.950Z,8.80
2018-10-04T20:26:26.544Z,8.80
2018-10-04T20:28:55.083Z,8.90
2018-10-04T20:31:23.688Z,9.00
2018-10-04T20:33:52.418Z,8.80
2018-10-04T20:36:20.982Z,8.80
2018-10-04T20:38:49.599Z,8.70
2018-10-04T20:41:18.196Z,8.70
2018-10-04T20:43:46.758Z,8.50
2018-10-04T20:46:15.265Z,8.60
2018-10-04T20:48:44.225Z,8.40
2018-10-04T20:51:12.770Z,8.00
2018-10-04T20:53:41.358Z,7.90
2018-10-04T20:56:09.937Z,8.00
2018-10-04T20:58:38.927Z,8.00
2018-10-04T21:01:07.866Z,7.90
2018-10-04T21:03:36.440Z,7.70
2018-10-04T21:06:04.989Z,7.90
2018-10-04T21:08:33.601Z,7.90
2018-10-04T21:11:02.208Z,8.00
2018-10-04T21:13:30.910Z,7.90
2018-10-04T21:15:59.648Z,7.60
2018-10-04T21:18:28.405Z,7.70
2018-10-04T21:20:56.951Z,7.50
2018-10-04T21:23:25.540Z,7.40
2018-10-04T21:25:54.232Z,7.50
2018-10-04T21:28:22.958Z,7.40
2018-10-04T21:30:51.584Z,7.20
2018-10-04T21:33:20.128Z,6.90
2018-10-04T21:35:48.705Z,6.90
2018-10-04T21:38:17.318Z,6.90
2018-10-04T21:40:45.965Z,7.00
2018-10-04T21:43:14.577Z,7.10
2018-10-04T21:45:43.243Z,7.20
2018-10-04T21:48:11.813Z,7.10
2018-10-04T21:50:40.388Z,6.90
2018-10-04T21:53:08.998Z,7.00
2018-10-04T21:55:37.585Z,7.00
2018-10-04T21:58:06.253Z,6.90
2018-10-04T22:00:34.865Z,6.80
2018-10-04T22:03:03.436Z,6.80
2018-10-04T22:05:32.050Z,6.80
2018-10-04T22:08:00.726Z,6.80
2018-10-04T22:10:29.342Z,6.90
2018-10-04T22:12:57.937Z,6.60
2018-10-04T22:15:26.569Z,6.70
2018-10-04T22:17:55.497Z,6.70
2018-10-04T22:20:24.185Z,6.70
2018-10-04T22:22:52.845Z,6.60
2018-10-04T22:25:21.537Z,6.70
2018-10-04T22:27:50.209Z,6.70
2018-10-04T22:30:18.807Z,6.60
2018-10-04T22:32:47.457Z,6.60
2018-10-04T22:35:16.150Z,6.60
2018-10-04T22:37:44.705Z,6.40
2018-10-04T22:40:13.256Z,6.40
2018-10-04T22:42:41.909Z,6.40
2018-10-04T22:45:10.452Z,6.50
2018-10-04T22:47:39.115Z,6.40
2018-10-04T22:50:08.091Z,6.20
2018-10-04T22:52:36.798Z,6.00
2018-10-04T22:55:05.535Z,6.00
2018-10-04T22:57:34.110Z,6.00
2018-10-04T23:00:02.726Z,6.00
2018-10-04T23:02:31.417Z,5.80
2018-10-04T23:05:00.038Z,5.70
2018-10-04T23:07:28.645Z,5.80
2018-10-04T23:09:57.194Z,5.90
2018-10-04T23:12:25.911Z,5.80
2018-10-04T23:14:54.493Z,5.80
2018-10-04T23:17:23.130Z,5.70
2018-10-04T23:19:52.420Z,5.70
2018-10-04T23:22:21.115Z,5.60
2018-10-04T23:24:49.719Z,5.80
2018-10-04T23:27:19.472Z,5.80
2018-10-04T23:29:48.051Z,5.70
2018-10-04T23:32:16.787Z,5.60
2018-10-04T23:34:45.358Z,5.50
2018-10-04T23:37:13.928Z,5.60
2018-10-04T23:39:42.528Z,5.70
2018-10-04T23:42:11.069Z,5.70
2018-10-04T23:44:39.964Z,5.60
2018-10-04T23:47:08.593Z,5.60
2018-10-04T23:49:37.203Z,5.60
2018-10-04T23:52:05.752Z,5.60
2018-10-04T23:54:34.462Z,5.60
2018-10-04T23:57:03.035Z,5.70
2018-10-04T23:59:31.642Z,5.60
